createdAt,value
2018-12-31T00:02:14.522Z,3.90
2018-12-31T00:04:45.809Z,3.80
2018-12-31T00:07:15.324Z,3.80
2018-12-31T00:09:44.732Z,3.80
2018-12-31T00:12:14.185Z,3.80
2018-12-31T00:14:43.712Z,3.80
2018-12-31T00:17:13.131Z,3.80
2018-12-31T00:19:42.613Z,3.80
2018-12-31T00:22:12.127Z,3.80
2018-12-31T00:24:41.984Z,3.80
2018-12-31T00:27:11.626Z,3.70
2018-12-31T00:29:41.089Z,3.80
2018-12-31T00:32:10.613Z,3.80
2018-12-31T00:34:40.083Z,3.80
2018-12-31T00:37:09.632Z,3.80
2018-12-31T00:39:39.095Z,3.80
2018-12-31T00:42:08.602Z,3.80
2018-12-31T00:44:38.099Z,3.80
2018-12-31T00:47:07.711Z,3.80
2018-12-31T00:49:37.143Z,3.80
2018-12-31T00:52:06.643Z,3.80
2018-12-31T00:54:36.075Z,3.80
2018-12-31T00:57:06.775Z,3.70
2018-12-31T00:59:36.214Z,3.70
2018-12-31T01:02:05.715Z,3.70
2018-12-31T01:04:35.129Z,3.70
2018-12-31T01:07:04.616Z,3.70
2018-12-31T01:09:34.065Z,3.70
2018-12-31T01:12:03.549Z,3.70
2018-12-31T01:14:33.619Z,3.70
2018-12-31T01:17:03.068Z,3.70
2018-12-31T01:19:32.521Z,3.80
2018-12-31T01:22:01.266Z,3.70
2018-12-31T01:24:30.948Z,3.80
2018-12-31T01:27:00.436Z,3.80
2018-12-31T01:29:29.952Z,3.80
2018-12-31T01:31:59.587Z,3.80
2018-12-31T01:34:29.089Z,3.80
2018-12-31T01:36:58.525Z,3.80
2018-12-31T01:39:28.303Z,3.90
2018-12-31T01:41:57.760Z,3.90
2018-12-31T01:44:27.328Z,3.80
2018-12-31T01:46:56.912Z,3.80
2018-12-31T01:49:26.353Z,3.90
2018-12-31T01:51:55.813Z,3.80
2018-12-31T01:54:25.525Z,3.80
2018-12-31T01:56:54.963Z,3.80
2018-12-31T01:59:24.468Z,3.80
2018-12-31T02:01:54.143Z,3.80
2018-12-31T02:04:23.661Z,3.80
2018-12-31T02:06:53.085Z,3.80
2018-12-31T02:09:23.143Z,3.80
2018-12-31T02:11:52.887Z,3.80
2018-12-31T02:14:22.342Z,3.80
2018-12-31T02:16:51.865Z,3.80
2018-12-31T02:19:21.593Z,3.80
2018-12-31T02:21:51.033Z,3.80
2018-12-31T02:24:20.473Z,3.80
2018-12-31T02:26:50.303Z,3.70
2018-12-31T02:29:19.949Z,3.70
2018-12-31T02:31:49.721Z,3.70
2018-12-31T02:34:19.198Z,3.80
2018-12-31T02:36:48.624Z,3.70
2018-12-31T02:39:18.355Z,3.70
2018-12-31T02:41:47.812Z,3.70
2018-12-31T02:44:17.277Z,3.70
2018-12-31T02:46:46.929Z,3.70
2018-12-31T02:49:16.385Z,3.70
2018-12-31T02:51:45.877Z,3.60
2018-12-31T02:54:15.405Z,3.60
2018-12-31T02:56:44.855Z,3.60
2018-12-31T02:59:14.392Z,3.60
2018-12-31T03:01:43.829Z,3.50
2018-12-31T03:04:13.630Z,3.50
2018-12-31T03:06:43.070Z,3.40
2018-12-31T03:09:12.508Z,3.30
2018-12-31T03:11:42.151Z,3.30
2018-12-31T03:14:11.596Z,3.30
2018-12-31T03:16:41.090Z,3.20
2018-12-31T03:19:10.653Z,3.20
2018-12-31T03:21:40.254Z,3.20
2018-12-31T03:24:09.730Z,3.20
2018-12-31T03:26:39.332Z,3.20
2018-12-31T03:29:08.820Z,3.20
2018-12-31T03:31:38.240Z,3.10
2018-12-31T03:34:07.949Z,3.10
2018-12-31T03:36:37.374Z,3.00
2018-12-31T03:39:07.800Z,3.00
2018-12-31T03:41:37.470Z,3.00
2018-12-31T03:44:06.885Z,3.00
2018-12-31T03:46:37.523Z,3.00
2018-12-31T03:49:07.205Z,2.90
2018-12-31T03:51:37.297Z,3.00
2018-12-31T03:54:06.707Z,2.90
2018-12-31T03:56:37.431Z,2.90
2018-12-31T03:59:07.049Z,2.90
2018-12-31T04:01:36.478Z,2.90
2018-12-31T04:04:06.240Z,2.80
2018-12-31T04:06:35.699Z,2.80
2018-12-31T04:09:06.772Z,2.80
2018-12-31T04:11:36.215Z,2.70
2018-12-31T04:14:05.647Z,2.70
2018-12-31T04:16:35.697Z,2.70
2018-12-31T04:19:05.125Z,2.70
2018-12-31T04:21:34.650Z,2.70
2018-12-31T04:24:04.158Z,2.70
2018-12-31T04:26:33.682Z,2.70
2018-12-31T04:29:03.172Z,2.60
2018-12-31T04:31:32.647Z,2.70
2018-12-31T04:34:02.136Z,2.60
2018-12-31T04:36:31.561Z,2.70
2018-12-31T04:39:01.093Z,2.60
2018-12-31T04:41:30.629Z,2.60
2018-12-31T04:44:00.132Z,2.60
2018-12-31T04:46:29.643Z,2.70
2018-12-31T04:48:59.358Z,2.60
2018-12-31T04:51:28.765Z,2.60
2018-12-31T04:53:58.255Z,2.60
2018-12-31T04:56:27.796Z,2.60
2018-12-31T04:58:57.307Z,2.60
2018-12-31T05:01:26.735Z,2.60
2018-12-31T05:03:56.228Z,2.50
2018-12-31T05:06:25.869Z,2.50
2018-12-31T05:08:55.293Z,2.60
2018-12-31T05:11:24.741Z,2.50
2018-12-31T05:13:54.573Z,2.50
2018-12-31T05:16:24.119Z,2.50
2018-12-31T05:18:53.889Z,2.50
2018-12-31T05:21:23.479Z,2.50
2018-12-31T05:23:53.430Z,2.50
2018-12-31T05:26:22.879Z,2.50
2018-12-31T05:28:52.422Z,2.50
2018-12-31T05:31:21.970Z,2.50
2018-12-31T05:33:51.430Z,2.50
2018-12-31T05:36:20.934Z,2.50
2018-12-31T05:38:50.586Z,2.50
2018-12-31T05:41:20.049Z,2.40
2018-12-31T05:43:49.904Z,2.40
2018-12-31T05:46:19.348Z,2.40
2018-12-31T05:48:48.905Z,2.40
2018-12-31T05:51:18.604Z,2.50
2018-12-31T05:53:48.150Z,2.40
2018-12-31T05:56:17.679Z,2.40
2018-12-31T05:58:47.246Z,2.40
2018-12-31T06:01:16.716Z,2.40
2018-12-31T06:03:46.742Z,2.40
2018-12-31T06:06:16.202Z,2.40
2018-12-31T06:08:45.560Z,2.40
2018-12-31T06:11:15.446Z,2.40
2018-12-31T06:13:44.865Z,2.30
2018-12-31T06:16:14.413Z,2.30
2018-12-31T06:18:43.907Z,2.30
2018-12-31T06:21:13.357Z,2.30
2018-12-31T06:23:42.853Z,2.20
2018-12-31T06:26:12.395Z,2.20
2018-12-31T06:28:41.871Z,2.20
2018-12-31T06:31:11.354Z,2.20
2018-12-31T06:33:40.868Z,2.20
2018-12-31T06:36:10.468Z,2.20
2018-12-31T06:38:39.877Z,2.20
2018-12-31T06:41:09.395Z,2.20
2018-12-31T06:43:39.084Z,2.20
2018-12-31T06:46:08.597Z,2.30
2018-12-31T06:48:38.003Z,2.30
2018-12-31T06:51:07.849Z,2.20
2018-12-31T06:53:37.269Z,2.30
2018-12-31T06:56:06.703Z,2.30
2018-12-31T06:58:36.461Z,2.30
2018-12-31T07:01:06.078Z,2.30
2018-12-31T07:03:35.542Z,2.30
2018-12-31T07:06:05.111Z,2.30
2018-12-31T07:08:34.513Z,2.30
2018-12-31T07:11:04.102Z,2.30
2018-12-31T07:13:33.519Z,2.30
2018-12-31T07:16:03.014Z,2.30
2018-12-31T07:18:32.589Z,2.30
2018-12-31T07:21:02.094Z,2.30
2018-12-31T07:23:31.787Z,2.30
2018-12-31T07:26:01.254Z,2.30
2018-12-31T07:28:32.601Z,2.40
2018-12-31T07:31:02.077Z,2.30
2018-12-31T07:33:31.501Z,2.30
2018-12-31T07:36:00.989Z,2.30
2018-12-31T07:38:30.445Z,2.30
2018-12-31T07:40:59.919Z,2.30
2018-12-31T07:43:29.662Z,2.30
2018-12-31T07:45:59.153Z,2.30
2018-12-31T07:48:28.555Z,2.20
2018-12-31T07:50:58.101Z,2.20
2018-12-31T07:53:27.517Z,2.20
2018-12-31T07:55:56.942Z,2.30
2018-12-31T07:58:26.521Z,2.30
2018-12-31T08:00:55.935Z,2.30
2018-12-31T08:03:25.411Z,2.30
2018-12-31T08:05:54.999Z,2.30
2018-12-31T08:08:24.427Z,2.30
2018-12-31T08:10:54.590Z,2.40
2018-12-31T08:13:24.175Z,2.50
2018-12-31T08:15:53.689Z,2.40
2018-12-31T08:18:23.113Z,2.40
2018-12-31T08:20:52.807Z,2.40
2018-12-31T08:23:23.434Z,2.40
2018-12-31T08:25:54.034Z,2.30
2018-12-31T08:28:24.232Z,2.40
2018-12-31T08:30:53.999Z,2.40
2018-12-31T08:33:23.847Z,2.40
2018-12-31T08:35:53.743Z,2.40
2018-12-31T08:38:23.230Z,2.40
2018-12-31T08:40:52.691Z,2.40
2018-12-31T08:43:22.163Z,2.40
2018-12-31T08:45:51.797Z,2.50
2018-12-31T08:48:21.321Z,2.50
2018-12-31T08:50:50.788Z,2.50
2018-12-31T08:53:20.276Z,2.60
2018-12-31T08:55:49.816Z,2.60
2018-12-31T08:58:19.348Z,2.60
2018-12-31T09:00:49.044Z,2.60
2018-12-31T09:03:18.563Z,2.60
2018-12-31T09:05:47.995Z,2.60
2018-12-31T09:08:17.466Z,2.70
2018-12-31T09:10:47.045Z,2.80
2018-12-31T09:13:16.502Z,2.80
2018-12-31T09:15:48.301Z,2.90
2018-12-31T09:18:20.606Z,3.00
2018-12-31T09:20:50.316Z,3.10
2018-12-31T09:23:19.806Z,3.10
2018-12-31T09:25:51.938Z,3.10
2018-12-31T09:28:21.639Z,3.20
2018-12-31T09:30:51.454Z,3.30
2018-12-31T09:33:22.406Z,3.20
2018-12-31T09:35:51.846Z,3.40
2018-12-31T09:38:21.438Z,3.30
2018-12-31T09:40:50.857Z,3.50
2018-12-31T09:43:20.858Z,4.00
2018-12-31T09:45:50.408Z,4.00
2018-12-31T09:48:19.921Z,4.00
2018-12-31T09:50:49.564Z,4.00
2018-12-31T09:53:21.692Z,4.10
2018-12-31T09:55:51.263Z,4.30
2018-12-31T09:58:20.725Z,4.10
2018-12-31T10:00:50.334Z,3.90
2018-12-31T10:03:19.866Z,4.30
2018-12-31T10:05:49.514Z,4.40
2018-12-31T10:08:19.023Z,5.50
2018-12-31T10:10:48.497Z,4.70
2018-12-31T10:13:18.001Z,4.40
2018-12-31T10:15:47.531Z,4.40
2018-12-31T10:18:16.982Z,4.50
2018-12-31T10:20:46.471Z,4.50
2018-12-31T10:23:15.943Z,5.30
2018-12-31T10:25:45.482Z,5.00
2018-12-31T10:28:14.955Z,5.10
2018-12-31T10:30:44.897Z,5.80
2018-12-31T10:33:14.376Z,6.80
2018-12-31T10:35:43.815Z,6.30
2018-12-31T10:38:13.695Z,5.50
2018-12-31T10:40:43.111Z,5.00
2018-12-31T10:43:12.616Z,4.90
2018-12-31T10:45:42.110Z,5.70
2018-12-31T10:48:11.593Z,6.00
2018-12-31T10:50:41.016Z,5.80
2018-12-31T10:53:10.495Z,5.10
2018-12-31T10:55:39.926Z,5.70
2018-12-31T10:58:09.495Z,5.40
2018-12-31T11:00:38.968Z,5.10
2018-12-31T11:03:08.379Z,4.90
2018-12-31T11:05:37.936Z,4.90
2018-12-31T11:08:07.445Z,5.10
2018-12-31T11:10:36.859Z,5.60
2018-12-31T11:13:06.723Z,5.70
2018-12-31T11:15:36.151Z,5.20
2018-12-31T11:18:05.589Z,5.00
2018-12-31T11:20:37.701Z,4.80
2018-12-31T11:23:07.211Z,4.70
2018-12-31T11:25:37.792Z,4.80
2018-12-31T11:28:07.472Z,4.60
2018-12-31T11:30:36.890Z,4.60
2018-12-31T11:33:06.702Z,4.50
2018-12-31T11:35:38.163Z,4.50
2018-12-31T11:38:07.629Z,4.40
2018-12-31T11:40:37.145Z,4.40
2018-12-31T11:43:06.642Z,4.60
2018-12-31T11:45:36.093Z,4.60
2018-12-31T11:48:06.081Z,4.70
2018-12-31T11:50:35.537Z,4.70
2018-12-31T11:53:05.011Z,4.80
2018-12-31T11:55:34.492Z,5.70
2018-12-31T11:58:03.985Z,5.10
2018-12-31T12:00:33.436Z,4.80
2018-12-31T12:03:02.862Z,4.70
2018-12-31T12:05:32.336Z,4.50
2018-12-31T12:08:01.810Z,4.80
2018-12-31T12:10:31.217Z,4.70
2018-12-31T12:13:00.794Z,4.60
2018-12-31T12:15:30.216Z,4.60
2018-12-31T12:18:00.080Z,4.60
2018-12-31T12:20:29.674Z,4.60
2018-12-31T12:22:59.286Z,4.50
2018-12-31T12:25:28.723Z,4.50
2018-12-31T12:27:58.227Z,4.50
2018-12-31T12:30:27.793Z,4.50
2018-12-31T12:32:57.365Z,4.50
2018-12-31T12:35:26.702Z,4.40
2018-12-31T12:37:56.261Z,4.40
2018-12-31T12:40:25.781Z,4.40
2018-12-31T12:42:55.226Z,4.40
2018-12-31T12:45:24.706Z,4.20
2018-12-31T12:47:54.197Z,4.20
2018-12-31T12:50:24.040Z,4.30
2018-12-31T12:52:53.513Z,4.20
2018-12-31T12:55:23.100Z,4.20
2018-12-31T12:57:52.535Z,4.10
2018-12-31T13:00:22.004Z,4.00
2018-12-31T13:02:51.640Z,4.00
2018-12-31T13:05:21.485Z,3.90
2018-12-31T13:07:50.931Z,3.90
2018-12-31T13:10:20.468Z,3.90
2018-12-31T13:12:49.907Z,3.90
2018-12-31T13:15:20.053Z,3.90
2018-12-31T13:17:49.793Z,3.90
2018-12-31T13:20:19.257Z,3.80
2018-12-31T13:22:48.688Z,3.80
2018-12-31T13:25:18.192Z,3.70
2018-12-31T13:27:47.683Z,3.70
2018-12-31T13:30:17.147Z,3.70
2018-12-31T13:32:46.697Z,3.70
2018-12-31T13:35:16.115Z,3.70
2018-12-31T13:37:45.653Z,3.60
2018-12-31T13:40:15.218Z,3.60
2018-12-31T13:42:44.633Z,3.70
2018-12-31T13:45:14.079Z,3.60
2018-12-31T13:47:43.511Z,3.60
2018-12-31T13:50:12.997Z,3.60
2018-12-31T13:52:42.491Z,3.60
2018-12-31T13:55:11.933Z,3.60
2018-12-31T13:57:41.507Z,3.70
2018-12-31T14:00:11.130Z,3.60
2018-12-31T14:02:40.597Z,3.60
2018-12-31T14:05:10.405Z,3.60
2018-12-31T14:07:39.815Z,3.50
2018-12-31T14:10:09.483Z,3.50
2018-12-31T14:12:39.021Z,3.50
2018-12-31T14:15:08.530Z,3.40
2018-12-31T14:17:37.972Z,3.30
2018-12-31T14:20:07.572Z,3.10
2018-12-31T14:22:40.105Z,3.10
2018-12-31T14:25:09.541Z,3.00
2018-12-31T14:27:39.043Z,2.80
2018-12-31T14:30:10.140Z,2.80
2018-12-31T14:32:39.666Z,2.70
2018-12-31T14:35:09.133Z,2.60
2018-12-31T14:37:38.653Z,2.50
2018-12-31T14:40:09.001Z,2.50
2018-12-31T14:42:38.420Z,2.50
2018-12-31T14:45:07.904Z,2.40
2018-12-31T14:47:37.455Z,2.40
2018-12-31T14:50:07.146Z,2.40
2018-12-31T14:53:10.540Z,2.30
2018-12-31T14:55:50.727Z,2.30
2018-12-31T14:58:20.189Z,2.30
2018-12-31T15:00:49.871Z,2.30
2018-12-31T15:03:19.333Z,2.30
2018-12-31T15:05:48.834Z,2.40
2018-12-31T15:08:18.459Z,2.30
2018-12-31T15:10:48.031Z,2.40
2018-12-31T15:13:17.488Z,2.40
2018-12-31T15:15:46.980Z,2.40
2018-12-31T15:18:16.434Z,2.40
2018-12-31T15:20:46.447Z,2.50
2018-12-31T15:23:15.898Z,2.50
2018-12-31T15:25:45.440Z,2.50
2018-12-31T15:28:15.049Z,2.50
2018-12-31T15:30:44.550Z,2.50
2018-12-31T15:33:14.408Z,2.50
2018-12-31T15:35:43.925Z,2.40
2018-12-31T15:38:13.429Z,2.40
2018-12-31T15:40:42.948Z,2.30
2018-12-31T15:43:12.715Z,2.20
2018-12-31T15:45:42.253Z,2.20
2018-12-31T15:48:11.733Z,2.20
2018-12-31T15:50:41.305Z,2.10
2018-12-31T15:53:11.059Z,2.20
2018-12-31T15:55:40.638Z,2.10
2018-12-31T15:58:10.355Z,2.10
2018-12-31T16:00:39.864Z,2.20
2018-12-31T16:03:09.852Z,2.10
2018-12-31T16:05:39.601Z,2.10
2018-12-31T16:08:09.233Z,2.10
2018-12-31T16:10:38.835Z,2.10
2018-12-31T16:13:08.287Z,2.10
2018-12-31T16:15:37.784Z,2.00
2018-12-31T16:18:07.277Z,2.00
2018-12-31T16:20:37.312Z,2.00
2018-12-31T16:23:06.831Z,1.90
2018-12-31T16:25:36.969Z,2.00
2018-12-31T16:28:07.414Z,1.90
2018-12-31T16:30:37.056Z,1.80
2018-12-31T16:33:07.010Z,1.90
2018-12-31T16:35:36.787Z,1.80
2018-12-31T16:38:06.318Z,1.80
2018-12-31T16:40:35.783Z,1.80
2018-12-31T16:43:05.576Z,1.70
2018-12-31T16:45:35.010Z,1.70
2018-12-31T16:48:04.542Z,1.70
2018-12-31T16:50:34.063Z,1.80
2018-12-31T16:53:03.568Z,1.70
2018-12-31T16:55:34.138Z,1.70
2018-12-31T16:58:03.742Z,1.70
2018-12-31T17:00:33.334Z,1.80
2018-12-31T17:03:02.803Z,1.80
2018-12-31T17:05:32.323Z,1.70
2018-12-31T17:08:02.283Z,1.70
2018-12-31T17:10:31.689Z,1.60
2018-12-31T17:13:01.110Z,1.60
2018-12-31T17:15:30.636Z,1.60
2018-12-31T17:18:00.063Z,1.60
2018-12-31T17:20:29.670Z,1.60
2018-12-31T17:22:59.203Z,1.60
2018-12-31T17:25:28.690Z,1.70
2018-12-31T17:27:58.280Z,1.70
2018-12-31T17:30:27.731Z,1.70
2018-12-31T17:32:57.392Z,1.60
2018-12-31T17:35:26.915Z,1.60
2018-12-31T17:37:56.345Z,1.60
2018-12-31T17:40:25.925Z,1.50
2018-12-31T17:42:55.428Z,1.60
2018-12-31T17:45:25.158Z,1.50
2018-12-31T17:47:54.701Z,1.50
2018-12-31T17:50:24.190Z,1.60
2018-12-31T17:52:53.626Z,1.60
2018-12-31T17:55:23.135Z,1.60
2018-12-31T17:57:52.930Z,1.60
2018-12-31T18:00:22.472Z,1.70
2018-12-31T18:02:51.909Z,1.70
2018-12-31T18:05:21.424Z,1.80
2018-12-31T18:07:50.954Z,1.80
2018-12-31T18:10:20.924Z,1.80
2018-12-31T18:12:50.356Z,1.80
2018-12-31T18:15:20.008Z,1.80
2018-12-31T18:17:49.420Z,1.80
2018-12-31T18:20:18.847Z,1.80
2018-12-31T18:22:48.486Z,1.80
2018-12-31T18:25:17.993Z,1.70
2018-12-31T18:27:47.445Z,1.70
2018-12-31T18:30:16.899Z,1.80
2018-12-31T18:32:46.429Z,1.80
2018-12-31T18:35:16.133Z,1.80
2018-12-31T18:37:45.645Z,1.90
2018-12-31T18:40:15.078Z,1.90
2018-12-31T18:42:44.493Z,1.90
2018-12-31T18:45:14.016Z,1.90
2018-12-31T18:47:43.446Z,1.90
2018-12-31T18:50:12.915Z,1.90
2018-12-31T18:52:42.359Z,1.90
2018-12-31T18:55:12.125Z,1.80
2018-12-31T18:57:41.546Z,1.80
2018-12-31T19:00:11.077Z,1.80
2018-12-31T19:02:40.598Z,1.80
2018-12-31T19:05:11.240Z,1.90
2018-12-31T19:07:40.752Z,1.90
2018-12-31T19:10:10.322Z,1.80
2018-12-31T19:12:39.674Z,1.80
2018-12-31T19:15:09.162Z,1.80
2018-12-31T19:17:38.668Z,1.80
2018-12-31T19:20:08.245Z,1.70
2018-12-31T19:22:37.980Z,1.80
2018-12-31T19:25:07.502Z,1.70
2018-12-31T19:27:37.096Z,1.70
2018-12-31T19:30:06.982Z,1.70
2018-12-31T19:32:36.479Z,1.70
2018-12-31T19:35:06.299Z,1.80
2018-12-31T19:37:35.838Z,1.80
2018-12-31T19:40:06.499Z,1.80
2018-12-31T19:42:36.173Z,1.90
2018-12-31T19:45:05.719Z,1.90
2018-12-31T19:47:35.444Z,2.10
2018-12-31T19:50:05.198Z,2.00
2018-12-31T19:52:34.660Z,2.10
2018-12-31T19:55:04.244Z,2.20
2018-12-31T19:57:33.794Z,2.20
2018-12-31T20:00:03.848Z,2.10
2018-12-31T20:02:33.453Z,2.20
2018-12-31T20:05:02.956Z,2.10
2018-12-31T20:07:32.468Z,2.10
2018-12-31T20:10:01.985Z,2.30
2018-12-31T20:12:31.807Z,2.40
2018-12-31T20:15:01.274Z,2.50
2018-12-31T20:17:30.753Z,2.50
2018-12-31T20:20:00.265Z,2.40
2018-12-31T20:22:31.468Z,2.40
2018-12-31T20:25:00.823Z,2.50
2018-12-31T20:27:30.357Z,2.50
2018-12-31T20:29:59.806Z,2.50
2018-12-31T20:32:29.397Z,2.60
2018-12-31T20:34:58.888Z,2.60
2018-12-31T20:37:28.367Z,2.60
2018-12-31T20:39:57.773Z,2.50
2018-12-31T20:42:27.525Z,2.40
2018-12-31T20:44:56.995Z,2.50
2018-12-31T20:47:26.408Z,2.50
2018-12-31T20:49:55.963Z,2.40
2018-12-31T20:52:25.374Z,2.40
2018-12-31T20:54:54.901Z,2.50
2018-12-31T20:57:24.407Z,2.60
2018-12-31T20:59:53.958Z,2.60
2018-12-31T21:02:23.901Z,2.60
2018-12-31T21:04:53.628Z,2.60
2018-12-31T21:07:23.056Z,2.60
2018-12-31T21:09:52.535Z,2.60
2018-12-31T21:12:22.410Z,2.50
2018-12-31T21:14:51.879Z,2.70
2018-12-31T21:17:21.484Z,2.80
2018-12-31T21:19:51.615Z,2.80
2018-12-31T21:22:21.196Z,2.80
2018-12-31T21:24:50.664Z,2.90
2018-12-31T21:27:20.110Z,2.80
2018-12-31T21:29:50.155Z,2.80
2018-12-31T21:32:19.696Z,2.70
2018-12-31T21:34:49.121Z,2.80
2018-12-31T21:37:18.592Z,2.90
2018-12-31T21:39:48.402Z,2.80
2018-12-31T21:42:18.521Z,2.70
2018-12-31T21:44:48.082Z,2.70
2018-12-31T21:47:17.564Z,2.60
2018-12-31T21:49:46.979Z,2.70
2018-12-31T21:52:16.448Z,2.60
2018-12-31T21:54:46.329Z,2.70
2018-12-31T21:57:15.754Z,2.80
2018-12-31T21:59:45.296Z,2.70
2018-12-31T22:02:14.723Z,2.70
2018-12-31T22:04:44.229Z,2.80
2018-12-31T22:07:14.168Z,2.80
2018-12-31T22:09:43.608Z,2.80
2018-12-31T22:12:13.225Z,2.80
2018-12-31T22:14:42.663Z,2.80
2018-12-31T22:17:12.160Z,2.80
2018-12-31T22:19:41.796Z,2.70
2018-12-31T22:22:11.218Z,2.70
2018-12-31T22:24:40.680Z,2.70
2018-12-31T22:27:10.288Z,2.70
2018-12-31T22:29:39.947Z,2.70
2018-12-31T22:32:10.453Z,2.70
2018-12-31T22:34:40.230Z,2.70
2018-12-31T22:37:09.690Z,2.60
2018-12-31T22:39:39.101Z,2.60
2018-12-31T22:42:08.557Z,2.60
2018-12-31T22:44:38.046Z,2.60
2018-12-31T22:47:07.569Z,2.60
2018-12-31T22:49:37.064Z,2.60
2018-12-31T22:52:06.553Z,2.50
2018-12-31T22:54:36.672Z,2.50
2018-12-31T22:57:06.426Z,2.50
2018-12-31T22:59:35.930Z,2.50
2018-12-31T23:02:05.523Z,2.50
2018-12-31T23:04:34.964Z,2.40
2018-12-31T23:07:07.014Z,2.40
2018-12-31T23:09:41.150Z,2.40
2018-12-31T23:12:08.187Z,2.40
2018-12-31T23:14:37.738Z,2.30
2018-12-31T23:17:09.725Z,2.30
2018-12-31T23:19:41.894Z,2.20
2018-12-31T23:22:10.607Z,2.20
2018-12-31T23:24:40.124Z,2.20
2018-12-31T23:27:10.719Z,2.10
2018-12-31T23:29:40.168Z,2.10
2018-12-31T23:32:09.604Z,2.00
2018-12-31T23:34:39.066Z,2.00
2018-12-31T23:37:08.559Z,2.00
2018-12-31T23:39:38.002Z,2.00
2018-12-31T23:42:07.562Z,1.90
2018-12-31T23:44:37.014Z,2.00
2018-12-31T23:47:06.484Z,2.00
2018-12-31T23:49:35.929Z,2.00
2018-12-31T23:52:05.385Z,1.90
2018-12-31T23:54:34.746Z,1.90
2018-12-31T23:57:04.187Z,1.90
2018-12-31T23:59:33.608Z,1.80
